首页
METAR-TAF:

METAR-TAF

机场 :

潘普洛纳机场

潘普洛納, 西班牙

纬度: 42-46N, 经度: 001-38W, 海拔: 459米

当前天气观测

该预报发布于48分钟前的20:30 UTC
风速6节,风向北转西北
温度 13°C
湿度 94%
气压 1010 hPa
能见度10公里或以上
1500米以下无云,无积雨云

METAR: LEPP 062030Z AUTO 34006KT CAVOK 13/12 Q1010

时间: 23:18 (21:18 UTC)

预报

该预报发布于1小时和18分钟前的20:00 UTC
预报有效从06日的 21点(UTC)到 07日的 21点(UTC)
风速9节,风向北转西北
能见度10公里或以上
散云层高于3000英尺
短暂存在
从 06日的 21点(UTC)到 07日的 06点(UTC)
能見度: 3000
散云层高于3000英尺, 塔状积云.
雨, 阵雨
几率 40% :
短暂存在
从 06日的 21点(UTC)到 07日的 03点(UTC)
能見度: 3000
多云层高于1000英尺
散云层高于3000英尺, 积雨云.
雷暴, 雨

TAF: LEPP 062000Z 0621/0721 34009KT 9999 SCT030 TX16/0714Z TN10/0703Z TEMPO 0621/0706 3000 RA SHRA SCT030TCU PROB40 TEMPO 0621/0703 3000 TSRA BKN010 SCT030CB

超过4000个机场的气象观测和天气预报(METAR&TAF报告)。

可查询的气象台以黄色和红色小点在地图上表示。

将鼠标移到小点上方,可查看气象台名称。

然后点击查看天气观测和预报。

如需切换地图:点击带黑十字的绿色按钮放大地图;点击带横线的绿色按钮缩小地图;或者点击绿色箭头查看邻近地区的地图。


METAR-TAF: